createdAt,value
2022-08-05T00:00:19.495Z,20.20
2022-08-05T00:02:50.866Z,20.20
2022-08-05T00:06:01.903Z,20.10
2022-08-05T00:08:10.736Z,20.30
2022-08-05T00:11:00.595Z,20.20
2022-08-05T00:13:38.078Z,20.20
2022-08-05T00:16:09.173Z,20.20
2022-08-05T00:18:39.423Z,20.20
2022-08-05T00:21:08.565Z,20.20
2022-08-05T00:23:46.288Z,20.20
2022-08-05T00:26:23.171Z,20.20
2022-08-05T00:28:51.796Z,20.40
2022-08-05T00:31:41.292Z,20.30
2022-08-05T00:34:56.415Z,20.10
2022-08-05T00:37:09.859Z,20.20
2022-08-05T00:39:44.100Z,20.20
2022-08-05T00:42:31.904Z,20.10
2022-08-05T00:45:00.707Z,20.10
2022-08-05T00:47:53.105Z,20.10
2022-08-05T00:50:20.975Z,20.10
2022-08-05T00:52:49.444Z,20.10
2022-08-05T00:55:18.954Z,20.10
2022-08-05T00:57:58.595Z,20.00
2022-08-05T01:00:28.014Z,20.00
2022-08-05T01:02:57.282Z,19.90
2022-08-05T01:05:28.283Z,20.10
2022-08-05T01:08:40.147Z,20.00
2022-08-05T01:10:52.370Z,20.00
2022-08-05T01:13:27.210Z,19.90
2022-08-05T01:16:26.275Z,19.80
2022-08-05T01:19:01.009Z,20.00
2022-08-05T01:21:52.397Z,20.00
2022-08-05T01:24:42.883Z,20.10
2022-08-05T01:27:26.554Z,20.00
2022-08-05T01:30:02.630Z,20.10
2022-08-05T01:32:36.165Z,20.10
2022-08-05T01:35:12.374Z,20.10
2022-08-05T01:38:02.721Z,20.10
2022-08-05T01:40:32.580Z,20.20
2022-08-05T01:43:03.762Z,20.10
2022-08-05T01:45:34.978Z,20.10
2022-08-05T01:48:13.848Z,20.20
2022-08-05T01:50:50.970Z,20.10
2022-08-05T01:53:57.214Z,20.00
2022-08-05T01:58:12.660Z,19.90
2022-08-05T01:59:05.837Z,19.90
2022-08-05T02:01:39.987Z,19.80
2022-08-05T02:04:10.582Z,20.00
2022-08-05T02:06:39.277Z,19.90
2022-08-05T02:09:08.434Z,19.80
2022-08-05T02:11:47.735Z,19.80
2022-08-05T02:14:22.198Z,19.70
2022-08-05T02:16:53.500Z,19.70
2022-08-05T02:19:34.262Z,19.70
2022-08-05T02:22:10.553Z,19.70
2022-08-05T02:24:57.605Z,19.60
2022-08-05T02:27:59.349Z,19.50
2022-08-05T02:30:20.595Z,19.50
2022-08-05T02:32:55.351Z,19.40
2022-08-05T02:35:27.714Z,19.40
2022-08-05T02:38:00.286Z,19.40
2022-08-05T02:40:32.216Z,19.30
2022-08-05T02:43:01.691Z,19.30
2022-08-05T02:45:52.294Z,19.40
2022-08-05T02:48:29.104Z,19.30
2022-08-05T02:51:00.666Z,19.30
2022-08-05T02:53:35.930Z,19.20
2022-08-05T02:56:09.582Z,19.30
2022-08-05T02:58:45.158Z,19.10
2022-08-05T03:01:27.193Z,19.20
2022-08-05T03:04:02.801Z,19.10
2022-08-05T03:06:53.879Z,19.20
2022-08-05T03:09:37.565Z,19.20
2022-08-05T03:12:08.310Z,19.20
2022-08-05T03:14:45.685Z,19.20
2022-08-05T03:17:14.452Z,19.20
2022-08-05T03:19:45.744Z,19.20
2022-08-05T03:22:16.422Z,19.10
2022-08-05T03:24:50.780Z,19.10
2022-08-05T03:27:19.674Z,19.20
2022-08-05T03:30:06.907Z,19.10
2022-08-05T03:32:36.968Z,19.00
2022-08-05T03:35:08.907Z,19.00
2022-08-05T03:37:45.867Z,19.00
2022-08-05T03:40:31.053Z,19.00
2022-08-05T03:42:59.598Z,19.00
2022-08-05T03:45:58.339Z,18.90
2022-08-05T03:48:27.597Z,19.00
2022-08-05T03:52:48.778Z,18.90
2022-08-05T03:55:52.077Z,18.80
2022-08-05T03:56:51.787Z,18.80
2022-08-05T03:59:25.942Z,18.80
2022-08-05T04:01:59.799Z,18.70
2022-08-05T04:04:29.024Z,18.70
2022-08-05T04:07:00.330Z,18.60
2022-08-05T04:09:29.351Z,18.60
2022-08-05T04:11:58.456Z,18.50
2022-08-05T04:14:30.462Z,18.60
2022-08-05T04:17:02.143Z,18.60
2022-08-05T04:19:32.817Z,18.50
2022-08-05T04:22:10.081Z,18.60
2022-08-05T04:24:44.582Z,18.50
2022-08-05T04:27:41.858Z,18.60
2022-08-05T04:30:12.889Z,18.50
2022-08-05T04:32:42.367Z,18.40
2022-08-05T04:35:17.323Z,18.40
2022-08-05T04:38:02.304Z,18.40
2022-08-05T04:40:36.360Z,18.40
2022-08-05T04:43:05.209Z,18.40
2022-08-05T04:45:48.165Z,18.40
2022-08-05T04:48:27.205Z,18.40
2022-08-05T04:51:03.218Z,18.30
2022-08-05T04:53:40.218Z,18.30
2022-08-05T04:56:32.765Z,18.30
2022-08-05T04:58:57.312Z,18.30
2022-08-05T05:02:05.725Z,18.10
2022-08-05T05:04:13.977Z,18.30
2022-08-05T05:06:49.150Z,18.30
2022-08-05T05:09:22.070Z,18.50
2022-08-05T05:11:54.370Z,18.40
2022-08-05T05:14:28.035Z,18.50
2022-08-05T05:17:00.432Z,18.50
2022-08-05T05:19:37.001Z,18.50
2022-08-05T05:22:22.789Z,18.60
2022-08-05T05:24:58.006Z,18.60
2022-08-05T05:27:41.311Z,18.60
2022-08-05T05:30:30.576Z,18.70
2022-08-05T05:33:16.518Z,18.80
2022-08-05T05:35:47.520Z,18.80
2022-08-05T05:38:22.450Z,18.80
2022-08-05T05:40:57.251Z,18.90
2022-08-05T05:43:56.500Z,18.90
2022-08-05T05:46:17.798Z,19.00
2022-08-05T05:48:48.836Z,19.10
2022-08-05T05:51:24.463Z,19.10
2022-08-05T05:53:58.969Z,19.20
2022-08-05T05:56:31.672Z,19.20
2022-08-05T05:59:03.624Z,19.30
2022-08-05T06:01:37.877Z,19.30
2022-08-05T06:04:12.211Z,19.30
2022-08-05T06:06:42.047Z,19.40
2022-08-05T06:09:17.429Z,19.50
2022-08-05T06:12:01.474Z,19.60
2022-08-05T06:14:30.494Z,19.50
2022-08-05T06:17:02.014Z,19.50
2022-08-05T06:19:56.807Z,19.50
2022-08-05T06:22:29.564Z,19.50
2022-08-05T06:24:57.852Z,19.40
2022-08-05T06:28:11.107Z,19.60
2022-08-05T06:30:20.073Z,19.70
2022-08-05T06:32:50.797Z,19.70
2022-08-05T06:36:02.947Z,19.80
2022-08-05T06:38:11.324Z,19.80
2022-08-05T06:40:42.263Z,19.80
2022-08-05T06:43:59.084Z,19.70
2022-08-05T06:46:07.277Z,19.80
2022-08-05T06:48:56.131Z,20.00
2022-08-05T06:51:29.808Z,19.90
2022-08-05T06:54:01.864Z,20.00
2022-08-05T06:56:33.330Z,20.10
2022-08-05T06:59:08.339Z,20.00
2022-08-05T07:01:40.807Z,20.10
2022-08-05T07:04:14.041Z,20.20
2022-08-05T07:06:42.337Z,20.20
2022-08-05T07:09:10.568Z,20.30
2022-08-05T07:11:44.601Z,20.30
2022-08-05T07:14:38.886Z,20.40
2022-08-05T07:18:01.164Z,20.60
2022-08-05T07:22:46.081Z,20.90
2022-08-05T07:25:54.757Z,20.90
2022-08-05T07:28:08.346Z,20.90
2022-08-05T07:30:41.562Z,20.90
2022-08-05T07:33:16.242Z,21.00
2022-08-05T07:36:02.809Z,21.10
2022-08-05T07:38:43.349Z,21.10
2022-08-05T07:41:35.167Z,20.90
2022-08-05T07:44:05.887Z,20.90
2022-08-05T07:46:48.239Z,20.90
2022-08-05T07:49:21.062Z,20.90
2022-08-05T07:51:53.829Z,20.90
2022-08-05T07:54:31.207Z,20.80
2022-08-05T07:57:41.801Z,20.80
2022-08-05T07:59:53.823Z,20.70
2022-08-05T08:02:31.255Z,20.80
2022-08-05T08:05:18.797Z,20.70
2022-08-05T08:08:00.215Z,20.70
2022-08-05T08:10:29.206Z,20.60
2022-08-05T08:12:58.839Z,20.60
2022-08-05T08:15:37.263Z,20.60
2022-08-05T08:18:20.970Z,20.50
2022-08-05T08:21:02.897Z,20.40
2022-08-05T08:24:01.605Z,20.30
2022-08-05T08:26:27.064Z,20.40
2022-08-05T08:29:21.949Z,20.20
2022-08-05T08:31:48.324Z,20.30
2022-08-05T08:34:18.731Z,20.40
2022-08-05T08:37:03.235Z,20.40
2022-08-05T08:39:37.806Z,20.40
2022-08-05T08:42:22.515Z,20.40
2022-08-05T08:45:24.221Z,20.30
2022-08-05T08:48:12.739Z,20.30
2022-08-05T08:51:07.649Z,20.30
2022-08-05T08:53:30.726Z,20.20
2022-08-05T08:56:04.788Z,20.20
2022-08-05T08:58:43.155Z,20.30
2022-08-05T09:01:17.920Z,20.30
2022-08-05T09:03:47.562Z,20.30
2022-08-05T09:06:21.006Z,20.20
2022-08-05T09:08:49.561Z,20.30
2022-08-05T09:11:19.432Z,20.30
2022-08-05T09:14:54.324Z,20.30
2022-08-05T09:16:58.838Z,20.30
2022-08-05T09:19:36.315Z,20.30
2022-08-05T09:22:23.267Z,20.30
2022-08-05T09:25:00.565Z,20.40
2022-08-05T09:28:03.800Z,20.40
2022-08-05T09:30:23.638Z,20.40
2022-08-05T09:32:53.511Z,20.40
2022-08-05T09:35:27.197Z,20.40
2022-08-05T09:38:12.453Z,20.40
2022-08-05T09:40:53.939Z,20.30
2022-08-05T09:43:40.774Z,20.30
2022-08-05T09:46:28.218Z,20.30
2022-08-05T09:49:08.094Z,20.30
2022-08-05T09:51:48.893Z,20.30
2022-08-05T09:54:32.426Z,20.40
2022-08-05T09:57:01.554Z,20.30
2022-08-05T09:59:35.099Z,20.30
2022-08-05T10:02:07.249Z,20.40
2022-08-05T10:04:41.102Z,20.40
2022-08-05T10:07:21.001Z,20.40
2022-08-05T10:10:14.639Z,20.40
2022-08-05T10:12:49.708Z,20.30
2022-08-05T10:15:22.281Z,20.20
2022-08-05T10:18:06.599Z,20.20
2022-08-05T10:20:37.355Z,20.20
2022-08-05T10:23:08.918Z,20.20
2022-08-05T10:25:55.672Z,20.30
2022-08-05T10:28:29.214Z,20.40
2022-08-05T10:32:49.031Z,20.50
2022-08-05T10:33:54.007Z,20.60
2022-08-05T10:36:26.075Z,20.50
2022-08-05T10:39:00.659Z,20.60
2022-08-05T10:41:45.200Z,20.80
2022-08-05T10:44:24.356Z,20.80
2022-08-05T10:46:55.244Z,20.90
2022-08-05T10:49:33.082Z,20.90
2022-08-05T10:52:05.574Z,20.90
2022-08-05T10:54:56.083Z,21.00
2022-08-05T10:57:32.267Z,21.10
2022-08-05T11:00:20.877Z,21.20
2022-08-05T11:03:25.082Z,21.20
2022-08-05T11:06:05.762Z,21.30
2022-08-05T11:08:39.224Z,21.50
2022-08-05T11:11:53.327Z,21.40
2022-08-05T11:14:57.628Z,21.50
2022-08-05T11:17:59.486Z,21.50
2022-08-05T11:20:44.620Z,21.90
2022-08-05T11:24:02.867Z,22.10
2022-08-05T11:26:33.500Z,21.90
2022-08-05T11:29:12.700Z,21.90
2022-08-05T11:31:57.500Z,21.90
2022-08-05T11:34:50.807Z,21.80
2022-08-05T11:38:26.490Z,21.80
2022-08-05T11:41:35.578Z,21.90
2022-08-05T11:44:06.292Z,21.90
2022-08-05T11:47:09.597Z,21.80
2022-08-05T11:49:34.107Z,22.00
2022-08-05T11:52:11.399Z,21.80
2022-08-05T11:54:41.702Z,21.70
2022-08-05T11:57:25.302Z,21.80
2022-08-05T11:59:54.938Z,22.10
2022-08-05T12:02:32.939Z,22.10
2022-08-05T12:05:06.828Z,22.20
2022-08-05T12:08:03.823Z,22.50
2022-08-05T12:10:42.970Z,22.60
2022-08-05T12:13:27.987Z,22.70
2022-08-05T12:16:14.722Z,22.70
2022-08-05T12:18:49.033Z,22.90
2022-08-05T12:21:26.741Z,22.90
2022-08-05T12:24:07.250Z,22.80
2022-08-05T12:26:37.839Z,23.00
2022-08-05T12:29:09.884Z,23.10
2022-08-05T12:31:53.828Z,23.00
2022-08-05T12:34:28.703Z,22.80
2022-08-05T12:37:04.137Z,22.90
2022-08-05T12:39:38.804Z,23.00
2022-08-05T12:42:15.318Z,22.90
2022-08-05T12:44:44.861Z,22.60
2022-08-05T12:47:28.555Z,22.60
2022-08-05T12:50:03.507Z,22.80
2022-08-05T12:52:39.663Z,23.20
2022-08-05T12:55:25.194Z,23.20
2022-08-05T12:58:52.494Z,22.80
2022-08-05T13:02:03.769Z,22.70
2022-08-05T13:03:39.078Z,22.80
2022-08-05T13:06:16.007Z,22.90
2022-08-05T13:08:52.654Z,22.80
2022-08-05T13:11:59.844Z,22.80
2022-08-05T13:14:19.663Z,22.80
2022-08-05T13:16:56.595Z,22.70
2022-08-05T13:19:26.866Z,22.40
2022-08-05T13:22:28.351Z,22.40
2022-08-05T13:25:05.502Z,22.40
2022-08-05T13:27:39.087Z,22.40
2022-08-05T13:30:34.712Z,22.50
2022-08-05T13:33:02.850Z,22.60
2022-08-05T13:35:42.734Z,22.50
2022-08-05T13:38:28.010Z,22.40
2022-08-05T13:41:04.385Z,22.40
2022-08-05T13:43:44.130Z,22.40
2022-08-05T13:46:30.726Z,22.30
2022-08-05T13:49:10.420Z,22.10
2022-08-05T13:51:41.387Z,22.00
2022-08-05T13:54:15.490Z,21.90
2022-08-05T13:56:50.850Z,21.80
2022-08-05T13:59:24.069Z,21.70
2022-08-05T14:01:57.716Z,21.80
2022-08-05T14:04:49.827Z,21.70
2022-08-05T14:07:55.437Z,21.80
2022-08-05T14:10:10.782Z,21.90
2022-08-05T14:12:42.789Z,22.00
2022-08-05T14:16:08.238Z,21.90
2022-08-05T14:18:14.767Z,21.50
2022-08-05T14:20:47.311Z,21.80
2022-08-05T14:23:19.097Z,21.90
2022-08-05T14:25:54.234Z,22.00
2022-08-05T14:28:26.536Z,21.70
2022-08-05T14:30:55.722Z,21.40
2022-08-05T14:33:24.512Z,21.50
2022-08-05T14:35:54.493Z,21.40
2022-08-05T14:38:32.484Z,21.70
2022-08-05T14:41:09.514Z,21.90
2022-08-05T14:44:02.575Z,21.70
2022-08-05T14:46:30.823Z,21.70
2022-08-05T14:49:03.500Z,21.40
2022-08-05T14:51:37.687Z,21.50
2022-08-05T14:54:26.079Z,21.40
2022-08-05T14:56:54.934Z,21.30
2022-08-05T14:59:24.976Z,21.10
2022-08-05T15:01:58.164Z,21.20
2022-08-05T15:04:27.395Z,21.30
2022-08-05T15:06:57.422Z,21.20
2022-08-05T15:09:51.919Z,21.20
2022-08-05T15:12:16.868Z,21.10
2022-08-05T15:14:50.590Z,21.00
2022-08-05T15:17:46.059Z,21.20
2022-08-05T15:20:18.901Z,21.30
2022-08-05T15:22:54.237Z,21.40
2022-08-05T15:25:51.060Z,21.40
2022-08-05T15:28:15.000Z,21.30
2022-08-05T15:30:45.731Z,21.40
2022-08-05T15:34:05.291Z,21.50
2022-08-05T15:36:04.998Z,21.70
2022-08-05T15:38:40.922Z,21.50
2022-08-05T15:41:22.211Z,21.30
2022-08-05T15:43:55.076Z,21.20
2022-08-05T15:46:25.502Z,21.10
2022-08-05T15:49:00.841Z,21.20
2022-08-05T15:52:03.650Z,21.40
2022-08-05T15:54:35.148Z,21.50
2022-08-05T15:57:07.342Z,21.80
2022-08-05T15:59:36.349Z,21.80
2022-08-05T16:02:09.596Z,21.70
2022-08-05T16:04:43.501Z,21.50
2022-08-05T16:07:17.108Z,21.60
2022-08-05T16:09:49.823Z,21.60
2022-08-05T16:12:19.941Z,21.40
2022-08-05T16:14:48.064Z,21.40
2022-08-05T16:17:18.752Z,21.50
2022-08-05T16:20:05.658Z,21.50
2022-08-05T16:22:37.443Z,21.60
2022-08-05T16:25:09.698Z,21.30
2022-08-05T16:27:59.790Z,21.00
2022-08-05T16:30:30.823Z,21.00
2022-08-05T16:33:02.951Z,21.20
2022-08-05T16:35:32.606Z,21.20
2022-08-05T16:38:23.693Z,21.00
2022-08-05T16:40:55.802Z,20.70
2022-08-05T16:43:30.880Z,20.90
2022-08-05T16:46:05.192Z,21.10
2022-08-05T16:48:40.979Z,21.30
2022-08-05T16:51:10.734Z,21.30
2022-08-05T16:54:05.992Z,21.20
2022-08-05T16:56:31.611Z,21.10
2022-08-05T16:59:01.881Z,21.10
2022-08-05T17:01:54.084Z,21.00
2022-08-05T17:04:27.444Z,21.10
2022-08-05T17:06:57.017Z,21.40
2022-08-05T17:09:29.557Z,21.70
2022-08-05T17:11:59.689Z,21.40
2022-08-05T17:14:36.785Z,21.40
2022-08-05T17:17:09.388Z,21.40
2022-08-05T17:19:46.202Z,21.20
2022-08-05T17:22:24.998Z,21.10
2022-08-05T17:24:58.207Z,21.30
2022-08-05T17:27:33.839Z,21.40
2022-08-05T17:30:03.886Z,21.40
2022-08-05T17:32:42.204Z,21.60
2022-08-05T17:35:15.578Z,21.50
2022-08-05T17:37:53.537Z,21.50
2022-08-05T17:40:29.372Z,21.50
2022-08-05T17:42:59.998Z,21.40
2022-08-05T17:45:37.913Z,21.40
2022-08-05T17:48:08.261Z,21.70
2022-08-05T17:50:39.040Z,21.60
2022-08-05T17:53:08.669Z,21.30
2022-08-05T17:55:39.671Z,21.20
2022-08-05T17:58:12.287Z,21.10
2022-08-05T18:00:44.616Z,21.20
2022-08-05T18:03:58.663Z,21.20
2022-08-05T18:06:15.470Z,21.30
2022-08-05T18:08:52.072Z,21.10
2022-08-05T18:11:32.989Z,21.10
2022-08-05T18:14:07.490Z,21.00
2022-08-05T18:16:51.123Z,20.90
2022-08-05T18:19:26.042Z,20.90
2022-08-05T18:22:08.832Z,20.90
2022-08-05T18:24:40.109Z,20.80
2022-08-05T18:27:18.972Z,20.80
2022-08-05T18:29:54.331Z,20.60
2022-08-05T18:32:27.730Z,20.40
2022-08-05T18:34:57.908Z,20.30
2022-08-05T18:37:34.415Z,20.20
2022-08-05T18:41:50.239Z,20.00
2022-08-05T18:43:08.916Z,19.90
2022-08-05T18:45:44.789Z,19.80
2022-08-05T18:48:17.569Z,19.80
2022-08-05T18:52:03.211Z,19.90
2022-08-05T18:54:09.105Z,19.60
2022-08-05T18:56:41.509Z,19.60
2022-08-05T18:59:44.200Z,19.50
2022-08-05T19:02:27.524Z,19.40
2022-08-05T19:06:06.103Z,19.30
2022-08-05T19:07:55.482Z,19.20
2022-08-05T19:10:26.676Z,19.20
2022-08-05T19:12:57.631Z,19.30
2022-08-05T19:15:57.844Z,19.20
2022-08-05T19:18:21.789Z,19.10
2022-08-05T19:20:53.205Z,19.00
2022-08-05T19:23:22.698Z,18.80
2022-08-05T19:26:16.736Z,18.80
2022-08-05T19:28:45.394Z,18.70
2022-08-05T19:31:18.004Z,18.70
2022-08-05T19:33:56.946Z,18.70
2022-08-05T19:36:26.236Z,18.70
2022-08-05T19:39:01.046Z,18.50
2022-08-05T19:42:06.999Z,18.60
2022-08-05T19:44:32.041Z,18.60
2022-08-05T19:47:02.745Z,18.60
2022-08-05T19:49:32.217Z,18.60
2022-08-05T19:52:08.924Z,18.50
2022-08-05T19:54:51.493Z,18.50
2022-08-05T19:57:48.937Z,18.50
2022-08-05T20:00:14.805Z,18.50
2022-08-05T20:02:42.971Z,18.40
2022-08-05T20:05:16.592Z,18.30
2022-08-05T20:07:57.717Z,18.30
2022-08-05T20:10:27.716Z,18.30
2022-08-05T20:13:00.497Z,18.30
2022-08-05T20:15:52.134Z,18.20
2022-08-05T20:18:33.806Z,18.20
2022-08-05T20:21:05.244Z,18.20
2022-08-05T20:23:39.873Z,18.20
2022-08-05T20:26:19.046Z,18.10
2022-08-05T20:28:53.942Z,18.30
2022-08-05T20:31:37.083Z,18.20
2022-08-05T20:34:12.675Z,18.20
2022-08-05T20:36:43.389Z,18.30
2022-08-05T20:39:13.347Z,18.10
2022-08-05T20:41:46.725Z,18.10
2022-08-05T20:44:29.891Z,18.30
2022-08-05T20:47:00.682Z,18.20
2022-08-05T20:49:29.238Z,18.10
2022-08-05T20:52:00.706Z,18.30
2022-08-05T20:54:59.198Z,18.20
2022-08-05T20:57:42.337Z,18.20
2022-08-05T21:00:40.764Z,18.10
2022-08-05T21:03:07.440Z,18.00
2022-08-05T21:05:53.843Z,18.00
2022-08-05T21:08:28.005Z,17.90
2022-08-05T21:12:09.282Z,17.80
2022-08-05T21:14:08.734Z,17.80
2022-08-05T21:16:43.798Z,17.80
2022-08-05T21:19:12.549Z,17.80
2022-08-05T21:21:44.342Z,17.90
2022-08-05T21:24:20.062Z,17.70
2022-08-05T21:26:57.942Z,17.80
2022-08-05T21:29:31.758Z,17.70
2022-08-05T21:32:03.361Z,17.80
2022-08-05T21:34:32.943Z,17.80
2022-08-05T21:37:04.690Z,17.70
2022-08-05T21:39:34.635Z,17.60
2022-08-05T21:42:30.619Z,17.70
2022-08-05T21:45:01.941Z,17.70
2022-08-05T21:47:54.813Z,17.70
2022-08-05T21:50:20.034Z,17.60
2022-08-05T21:52:50.359Z,17.60
2022-08-05T21:55:42.932Z,17.60
2022-08-05T21:58:12.784Z,17.60
2022-08-05T22:00:41.318Z,17.50
2022-08-05T22:03:51.799Z,17.50
2022-08-05T22:06:09.386Z,17.40
2022-08-05T22:08:37.470Z,17.30
2022-08-05T22:11:15.551Z,17.30
2022-08-05T22:14:05.594Z,17.20
2022-08-05T22:16:51.889Z,17.20
2022-08-05T22:20:01.700Z,17.10
2022-08-05T22:22:10.808Z,17.00
2022-08-05T22:24:57.890Z,17.00
2022-08-05T22:28:09.564Z,16.90
2022-08-05T22:30:36.040Z,16.90
2022-08-05T22:33:04.441Z,16.90
2022-08-05T22:35:48.641Z,16.80
2022-08-05T22:38:19.631Z,16.70
2022-08-05T22:40:54.861Z,16.60
2022-08-05T22:43:36.631Z,16.60
2022-08-05T22:46:13.035Z,16.60
2022-08-05T22:48:42.312Z,16.70
2022-08-05T22:51:22.376Z,16.60
2022-08-05T22:53:51.947Z,16.60
2022-08-05T22:56:30.292Z,16.60
2022-08-05T22:59:03.955Z,16.50
2022-08-05T23:02:05.003Z,16.40
2022-08-05T23:04:36.097Z,16.40
2022-08-05T23:07:08.503Z,16.30
2022-08-05T23:09:57.556Z,16.40
2022-08-05T23:12:25.247Z,16.30
2022-08-05T23:14:56.821Z,16.20
2022-08-05T23:17:34.737Z,16.20
2022-08-05T23:20:10.536Z,16.20
2022-08-05T23:22:48.533Z,16.20
2022-08-05T23:25:51.551Z,16.10
2022-08-05T23:28:07.745Z,16.00
2022-08-05T23:30:39.569Z,16.00
2022-08-05T23:33:22.604Z,16.00
2022-08-05T23:35:55.953Z,15.90
2022-08-05T23:38:26.860Z,16.20
2022-08-05T23:40:55.125Z,16.00
2022-08-05T23:43:36.955Z,16.00
2022-08-05T23:46:20.677Z,16.00
2022-08-05T23:48:59.773Z,16.00
2022-08-05T23:51:52.920Z,16.00
2022-08-05T23:54:25.068Z,15.90
2022-08-05T23:56:55.140Z,15.90
2022-08-05T23:59:27.532Z,15.90
